sensor_id;sensor_type;location;lat;lon;timestamp;pressure;altitude;pressure_sealevel;temperature;humidity
64292;BME280;50628;51.008;13.658;2023-10-09T00:04:15;100324.34;;;11.60;100.00
64292;BME280;50628;51.008;13.658;2023-10-09T00:09:18;100321.50;;;11.63;100.00
64292;BME280;50628;51.008;13.658;2023-10-09T00:14:32;100312.50;;;11.78;100.00
64292;BME280;50628;51.008;13.658;2023-10-09T00:19:36;100305.34;;;11.35;100.00
64292;BME280;50628;51.008;13.658;2023-10-09T00:24:38;100293.19;;;11.12;100.00
64292;BME280;50628;51.008;13.658;2023-10-09T00:29:46;100285.22;;;11.02;100.00
64292;BME280;50628;51.008;13.658;2023-10-09T00:34:50;100281.63;;;11.27;100.00
64292;BME280;50628;51.008;13.658;2023-10-09T00:39:52;100254.06;;;11.47;100.00
64292;BME280;50628;51.008;13.658;2023-10-09T00:44:57;100216.25;;;11.41;100.00
64292;BME280;50628;51.008;13.658;2023-10-09T00:50:07;100179.88;;;11.51;100.00
64292;BME280;50628;51.008;13.658;2023-10-09T00:55:12;100197.31;;;11.39;100.00
64292;BME280;50628;51.008;13.658;2023-10-09T01:00:15;100203.72;;;11.46;100.00
64292;BME280;50628;51.008;13.658;2023-10-09T01:05:34;100204.88;;;11.54;100.00
64292;BME280;50628;51.008;13.658;2023-10-09T01:10:44;100198.63;;;11.45;100.00
64292;BME280;50628;51.008;13.658;2023-10-09T01:15:51;100196.34;;;11.63;100.00
64292;BME280;50628;51.008;13.658;2023-10-09T01:20:56;100203.59;;;11.37;100.00
64292;BME280;50628;51.008;13.658;2023-10-09T01:25:59;100188.28;;;11.10;100.00
64292;BME280;50628;51.008;13.658;2023-10-09T01:31:01;100178.16;;;10.82;100.00
64292;BME280;50628;51.008;13.658;2023-10-09T01:36:04;100162.03;;;10.66;100.00
64292;BME280;50628;51.008;13.658;2023-10-09T01:41:14;100154.75;;;10.94;100.00
64292;BME280;50628;51.008;13.658;2023-10-09T01:46:20;100158.53;;;11.01;100.00
64292;BME280;50628;51.008;13.658;2023-10-09T01:51:22;100153.56;;;10.98;100.00
64292;BME280;50628;51.008;13.658;2023-10-09T01:56:26;100165.66;;;10.99;100.00
64292;BME280;50628;51.008;13.658;2023-10-09T02:01:28;100146.88;;;10.71;100.00
64292;BME280;50628;51.008;13.658;2023-10-09T02:06:34;100126.75;;;10.73;100.00
64292;BME280;50628;51.008;13.658;2023-10-09T02:11:39;100115.75;;;10.58;100.00
64292;BME280;50628;51.008;13.658;2023-10-09T02:16:49;100087.84;;;10.72;100.00
64292;BME280;50628;51.008;13.658;2023-10-09T02:22:04;100098.16;;;10.85;100.00
64292;BME280;50628;51.008;13.658;2023-10-09T02:27:14;100078.09;;;10.63;100.00
64292;BME280;50628;51.008;13.658;2023-10-09T02:32:20;100064.97;;;10.75;100.00
64292;BME280;50628;51.008;13.658;2023-10-09T02:37:27;100046.44;;;10.91;100.00
64292;BME280;50628;51.008;13.658;2023-10-09T02:42:31;100041.09;;;10.93;100.00
64292;BME280;50628;51.008;13.658;2023-10-09T02:47:33;100029.72;;;11.05;100.00
64292;BME280;50628;51.008;13.658;2023-10-09T02:52:39;100030.53;;;11.05;100.00
64292;BME280;50628;51.008;13.658;2023-10-09T02:57:43;100011.72;;;10.91;100.00
64292;BME280;50628;51.008;13.658;2023-10-09T03:02:45;99989.47;;;10.98;100.00
64292;BME280;50628;51.008;13.658;2023-10-09T03:07:50;99985.47;;;10.82;100.00
64292;BME280;50628;51.008;13.658;2023-10-09T03:12:55;99968.91;;;10.83;100.00
64292;BME280;50628;51.008;13.658;2023-10-09T03:17:56;99959.06;;;10.87;100.00
64292;BME280;50628;51.008;13.658;2023-10-09T03:22:59;99949.38;;;10.89;100.00
64292;BME280;50628;51.008;13.658;2023-10-09T03:28:04;99928.03;;;10.95;100.00
64292;BME280;50628;51.008;13.658;2023-10-09T03:33:07;99921.66;;;10.99;100.00
64292;BME280;50628;51.008;13.658;2023-10-09T03:38:09;99891.00;;;10.92;100.00
64292;BME280;50628;51.008;13.658;2023-10-09T03:43:18;99907.81;;;10.99;100.00
64292;BME280;50628;51.008;13.658;2023-10-09T03:48:20;99917.06;;;10.92;100.00
64292;BME280;50628;51.008;13.658;2023-10-09T03:53:26;99922.00;;;10.95;100.00
64292;BME280;50628;51.008;13.658;2023-10-09T03:58:31;99915.97;;;10.94;100.00
64292;BME280;50628;51.008;13.658;2023-10-09T04:03:35;99921.91;;;10.96;100.00
64292;BME280;50628;51.008;13.658;2023-10-09T04:08:37;99918.09;;;11.00;100.00
64292;BME280;50628;51.008;13.658;2023-10-09T04:13:46;99926.59;;;11.02;100.00
64292;BME280;50628;51.008;13.658;2023-10-09T04:18:49;99927.44;;;11.03;100.00
64292;BME280;50628;51.008;13.658;2023-10-09T04:23:52;99933.34;;;11.05;100.00
64292;BME280;50628;51.008;13.658;2023-10-09T04:29:18;99927.53;;;11.13;100.00
64292;BME280;50628;51.008;13.658;2023-10-09T04:34:27;99914.88;;;11.08;100.00
64292;BME280;50628;51.008;13.658;2023-10-09T04:39:35;99911.78;;;11.14;100.00
64292;BME280;50628;51.008;13.658;2023-10-09T04:44:39;99909.19;;;11.03;100.00
64292;BME280;50628;51.008;13.658;2023-10-09T04:49:52;99901.72;;;11.10;100.00
64292;BME280;50628;51.008;13.658;2023-10-09T04:55:03;99891.94;;;11.02;100.00
64292;BME280;50628;51.008;13.658;2023-10-09T05:00:18;99872.47;;;11.06;100.00
64292;BME280;50628;51.008;13.658;2023-10-09T05:05:44;99863.81;;;11.17;100.00
64292;BME280;50628;51.008;13.658;2023-10-09T05:10:59;99855.78;;;11.09;100.00
64292;BME280;50628;51.008;13.658;2023-10-09T05:16:29;99857.72;;;11.27;100.00
64292;BME280;50628;51.008;13.658;2023-10-09T05:21:34;99852.94;;;11.12;100.00
64292;BME280;50628;51.008;13.658;2023-10-09T05:26:49;99858.31;;;10.99;100.00
64292;BME280;50628;51.008;13.658;2023-10-09T05:31:54;99833.75;;;11.13;100.00
64292;BME280;50628;51.008;13.658;2023-10-09T05:37:04;99827.25;;;11.07;100.00
64292;BME280;50628;51.008;13.658;2023-10-09T05:42:18;99832.13;;;11.00;100.00
64292;BME280;50628;51.008;13.658;2023-10-09T05:47:23;99833.72;;;10.92;100.00
64292;BME280;50628;51.008;13.658;2023-10-09T05:52:35;99842.91;;;11.07;100.00
64292;BME280;50628;51.008;13.658;2023-10-09T05:57:51;99863.00;;;11.16;100.00
64292;BME280;50628;51.008;13.658;2023-10-09T06:03:08;99856.47;;;11.22;100.00
64292;BME280;50628;51.008;13.658;2023-10-09T06:08:26;99848.19;;;11.17;100.00
64292;BME280;50628;51.008;13.658;2023-10-09T06:13:47;99851.94;;;11.24;100.00
64292;BME280;50628;51.008;13.658;2023-10-09T06:19:04;99855.03;;;11.18;100.00
64292;BME280;50628;51.008;13.658;2023-10-09T06:24:13;99847.22;;;11.18;100.00
64292;BME280;50628;51.008;13.658;2023-10-09T06:29:18;99826.34;;;11.29;100.00
64292;BME280;50628;51.008;13.658;2023-10-09T06:34:49;99835.06;;;11.39;100.00
64292;BME280;50628;51.008;13.658;2023-10-09T06:39:55;99832.25;;;11.52;100.00
64292;BME280;50628;51.008;13.658;2023-10-09T06:45:44;99822.00;;;11.60;100.00
64292;BME280;50628;51.008;13.658;2023-10-09T06:50:47;99823.00;;;11.69;100.00
64292;BME280;50628;51.008;13.658;2023-10-09T06:55:58;99821.84;;;11.52;100.00
64292;BME280;50628;51.008;13.658;2023-10-09T07:01:05;99848.59;;;11.75;100.00
64292;BME280;50628;51.008;13.658;2023-10-09T07:06:30;99852.44;;;13.02;100.00
64292;BME280;50628;51.008;13.658;2023-10-09T07:11:52;99848.47;;;13.66;100.00
64292;BME280;50628;51.008;13.658;2023-10-09T07:17:06;99869.28;;;14.05;100.00
64292;BME280;50628;51.008;13.658;2023-10-09T07:22:18;99870.06;;;14.15;100.00
64292;BME280;50628;51.008;13.658;2023-10-09T07:27:30;99859.16;;;14.20;100.00
64292;BME280;50628;51.008;13.658;2023-10-09T07:32:45;99878.03;;;14.23;100.00
64292;BME280;50628;51.008;13.658;2023-10-09T07:37:49;99871.28;;;14.21;100.00
64292;BME280;50628;51.008;13.658;2023-10-09T07:42:51;99893.78;;;14.14;100.00
64292;BME280;50628;51.008;13.658;2023-10-09T07:48:05;99901.09;;;14.10;100.00
64292;BME280;50628;51.008;13.658;2023-10-09T07:53:16;99891.03;;;14.05;100.00
64292;BME280;50628;51.008;13.658;2023-10-09T07:58:21;99893.22;;;14.10;100.00
64292;BME280;50628;51.008;13.658;2023-10-09T08:03:25;99891.31;;;14.12;100.00
64292;BME280;50628;51.008;13.658;2023-10-09T08:08:34;99898.84;;;14.15;100.00
64292;BME280;50628;51.008;13.658;2023-10-09T08:14:02;99895.94;;;14.18;100.00
64292;BME280;50628;51.008;13.658;2023-10-09T08:19:07;99902.44;;;14.24;100.00
64292;BME280;50628;51.008;13.658;2023-10-09T08:24:34;99887.13;;;14.29;100.00
64292;BME280;50628;51.008;13.658;2023-10-09T08:29:42;99889.03;;;14.27;100.00
64292;BME280;50628;51.008;13.658;2023-10-09T08:34:48;99895.41;;;14.24;100.00
64292;BME280;50628;51.008;13.658;2023-10-09T08:39:55;99916.91;;;14.18;100.00
64292;BME280;50628;51.008;13.658;2023-10-09T08:44:57;99912.75;;;14.16;100.00
64292;BME280;50628;51.008;13.658;2023-10-09T08:50:04;99906.31;;;14.10;100.00
64292;BME280;50628;51.008;13.658;2023-10-09T08:55:15;99919.84;;;13.96;100.00
64292;BME280;50628;51.008;13.658;2023-10-09T09:00:17;99921.09;;;13.92;100.00
64292;BME280;50628;51.008;13.658;2023-10-09T09:05:22;99932.00;;;13.87;100.00
64292;BME280;50628;51.008;13.658;2023-10-09T09:10:30;99934.06;;;13.74;100.00
64292;BME280;50628;51.008;13.658;2023-10-09T09:15:36;99926.47;;;13.71;100.00
64292;BME280;50628;51.008;13.658;2023-10-09T09:20:40;99931.88;;;13.69;100.00
64292;BME280;50628;51.008;13.658;2023-10-09T09:25:47;99950.59;;;13.64;100.00
64292;BME280;50628;51.008;13.658;2023-10-09T09:31:07;99945.38;;;13.64;100.00
64292;BME280;50628;51.008;13.658;2023-10-09T09:36:13;99929.66;;;13.64;100.00
64292;BME280;50628;51.008;13.658;2023-10-09T09:41:18;99925.41;;;13.63;100.00
64292;BME280;50628;51.008;13.658;2023-10-09T09:46:24;99925.41;;;13.63;100.00
64292;BME280;50628;51.008;13.658;2023-10-09T09:51:34;99932.28;;;13.64;100.00
64292;BME280;50628;51.008;13.658;2023-10-09T09:56:41;99930.38;;;13.67;100.00
64292;BME280;50628;51.008;13.658;2023-10-09T10:01:45;99949.38;;;13.69;100.00
64292;BME280;50628;51.008;13.658;2023-10-09T10:06:57;99939.16;;;13.75;100.00
64292;BME280;50628;51.008;13.658;2023-10-09T10:12:06;99940.00;;;13.76;100.00
64292;BME280;50628;51.008;13.658;2023-10-09T10:17:10;99932.28;;;13.84;100.00
64292;BME280;50628;51.008;13.658;2023-10-09T10:22:25;99941.34;;;13.70;100.00
64292;BME280;50628;51.008;13.658;2023-10-09T10:27:29;99929.66;;;13.74;100.00
64292;BME280;50628;51.008;13.658;2023-10-09T10:33:03;99942.19;;;13.80;100.00
64292;BME280;50628;51.008;13.658;2023-10-09T10:38:28;99935.31;;;13.70;100.00
64292;BME280;50628;51.008;13.658;2023-10-09T10:43:40;99924.97;;;13.78;100.00
64292;BME280;50628;51.008;13.658;2023-10-09T10:49:00;99925.53;;;13.81;100.00
64292;BME280;50628;51.008;13.658;2023-10-09T10:54:22;99914.78;;;13.84;100.00
64292;BME280;50628;51.008;13.658;2023-10-09T10:59:48;99908.31;;;13.89;100.00
64292;BME280;50628;51.008;13.658;2023-10-09T11:05:04;99893.28;;;13.91;100.00
64292;BME280;50628;51.008;13.658;2023-10-09T11:10:24;99890.53;;;13.92;100.00
64292;BME280;50628;51.008;13.658;2023-10-09T11:15:35;99886.53;;;13.88;100.00
64292;BME280;50628;51.008;13.658;2023-10-09T11:20:45;99886.94;;;13.93;100.00
64292;BME280;50628;51.008;13.658;2023-10-09T11:26:13;99876.75;;;13.90;100.00
64292;BME280;50628;51.008;13.658;2023-10-09T11:31:27;99876.47;;;13.93;100.00
64292;BME280;50628;51.008;13.658;2023-10-09T11:36:34;99870.69;;;13.90;100.00
64292;BME280;50628;51.008;13.658;2023-10-09T11:41:39;99874.81;;;13.92;100.00
64292;BME280;50628;51.008;13.658;2023-10-09T11:46:57;99887.09;;;13.92;100.00
64292;BME280;50628;51.008;13.658;2023-10-09T11:52:06;99877.97;;;13.96;100.00
64292;BME280;50628;51.008;13.658;2023-10-09T11:57:23;99888.59;;;13.94;100.00
64292;BME280;50628;51.008;13.658;2023-10-09T12:02:32;99866.78;;;14.03;100.00
64292;BME280;50628;51.008;13.658;2023-10-09T12:07:44;99867.88;;;14.11;100.00
64292;BME280;50628;51.008;13.658;2023-10-09T12:12:46;99868.97;;;14.08;100.00
64292;BME280;50628;51.008;13.658;2023-10-09T12:17:50;99871.03;;;14.14;100.00
64292;BME280;50628;51.008;13.658;2023-10-09T12:22:53;99882.59;;;14.21;100.00
64292;BME280;50628;51.008;13.658;2023-10-09T12:27:58;99880.50;;;14.25;100.00
64292;BME280;50628;51.008;13.658;2023-10-09T12:33:03;99878.88;;;14.24;100.00
64292;BME280;50628;51.008;13.658;2023-10-09T12:38:07;99882.13;;;14.26;100.00
64292;BME280;50628;51.008;13.658;2023-10-09T12:43:13;99874.63;;;14.41;100.00
64292;BME280;50628;51.008;13.658;2023-10-09T12:48:18;99877.25;;;14.41;100.00
64292;BME280;50628;51.008;13.658;2023-10-09T12:53:21;99870.63;;;14.46;100.00
64292;BME280;50628;51.008;13.658;2023-10-09T12:58:22;99874.63;;;14.41;100.00
64292;BME280;50628;51.008;13.658;2023-10-09T13:03:28;99870.25;;;14.41;100.00
64292;BME280;50628;51.008;13.658;2023-10-09T13:08:33;99866.25;;;14.37;100.00
64292;BME280;50628;51.008;13.658;2023-10-09T13:13:36;99877.00;;;14.44;100.00
64292;BME280;50628;51.008;13.658;2023-10-09T13:18:43;99863.44;;;14.48;100.00
64292;BME280;50628;51.008;13.658;2023-10-09T13:23:50;99865.66;;;14.53;100.00
64292;BME280;50628;51.008;13.658;2023-10-09T13:28:52;99852.00;;;14.59;100.00
64292;BME280;50628;51.008;13.658;2023-10-09T13:33:56;99863.97;;;14.62;100.00
64292;BME280;50628;51.008;13.658;2023-10-09T13:39:00;99869.88;;;14.64;100.00
64292;BME280;50628;51.008;13.658;2023-10-09T13:44:22;99864.28;;;14.49;100.00
64292;BME280;50628;51.008;13.658;2023-10-09T13:49:28;99853.50;;;14.52;100.00
64292;BME280;50628;51.008;13.658;2023-10-09T13:54:31;99868.97;;;14.45;100.00
64292;BME280;50628;51.008;13.658;2023-10-09T13:59:42;99871.59;;;14.45;100.00
64292;BME280;50628;51.008;13.658;2023-10-09T14:04:51;99867.16;;;14.46;100.00
64292;BME280;50628;51.008;13.658;2023-10-09T14:09:52;99864.41;;;14.47;100.00
64292;BME280;50628;51.008;13.658;2023-10-09T14:15:08;99873.91;;;14.48;100.00
64292;BME280;50628;51.008;13.658;2023-10-09T14:20:18;99868.06;;;14.37;100.00
64292;BME280;50628;51.008;13.658;2023-10-09T14:25:32;99860.59;;;14.42;100.00
64292;BME280;50628;51.008;13.658;2023-10-09T14:30:38;99856.31;;;14.41;100.00
64292;BME280;50628;51.008;13.658;2023-10-09T14:35:45;99870.94;;;14.34;100.00
64292;BME280;50628;51.008;13.658;2023-10-09T14:40:47;99867.22;;;14.36;100.00
64292;BME280;50628;51.008;13.658;2023-10-09T14:45:49;99864.50;;;14.28;100.00
64292;BME280;50628;51.008;13.658;2023-10-09T14:50:55;99870.00;;;14.35;100.00
64292;BME280;50628;51.008;13.658;2023-10-09T14:56:05;99866.44;;;14.26;100.00
64292;BME280;50628;51.008;13.658;2023-10-09T15:01:09;99856.09;;;14.34;100.00
64292;BME280;50628;51.008;13.658;2023-10-09T15:06:14;99864.06;;;14.33;100.00
64292;BME280;50628;51.008;13.658;2023-10-09T15:11:21;99876.34;;;14.32;100.00
64292;BME280;50628;51.008;13.658;2023-10-09T15:16:24;99878.56;;;14.27;100.00
64292;BME280;50628;51.008;13.658;2023-10-09T15:21:30;99883.00;;;14.26;100.00
64292;BME280;50628;51.008;13.658;2023-10-09T15:26:33;99881.31;;;14.25;100.00
64292;BME280;50628;51.008;13.658;2023-10-09T15:31:35;99893.59;;;14.25;100.00
64292;BME280;50628;51.008;13.658;2023-10-09T15:36:38;99880.78;;;14.22;100.00
64292;BME280;50628;51.008;13.658;2023-10-09T15:41:40;99894.72;;;14.22;100.00
64292;BME280;50628;51.008;13.658;2023-10-09T15:46:42;99898.97;;;14.23;100.00
64292;BME280;50628;51.008;13.658;2023-10-09T15:51:47;99902.13;;;14.27;100.00
64292;BME280;50628;51.008;13.658;2023-10-09T15:56:49;99900.59;;;14.34;100.00
64292;BME280;50628;51.008;13.658;2023-10-09T16:01:51;99895.91;;;14.28;100.00
64292;BME280;50628;51.008;13.658;2023-10-09T16:06:55;99901.31;;;14.26;100.00
64292;BME280;50628;51.008;13.658;2023-10-09T16:11:57;99909.00;;;14.28;100.00
64292;BME280;50628;51.008;13.658;2023-10-09T16:17:00;99913.03;;;14.22;100.00
64292;BME280;50628;51.008;13.658;2023-10-09T16:22:04;99921.00;;;14.21;100.00
64292;BME280;50628;51.008;13.658;2023-10-09T16:27:06;99921.59;;;14.15;100.00
64292;BME280;50628;51.008;13.658;2023-10-09T16:32:09;99938.00;;;14.17;100.00
64292;BME280;50628;51.008;13.658;2023-10-09T16:37:13;99930.28;;;14.15;100.00
64292;BME280;50628;51.008;13.658;2023-10-09T16:42:15;99931.94;;;14.16;100.00
64292;BME280;50628;51.008;13.658;2023-10-09T16:47:17;99937.13;;;14.26;100.00
64292;BME280;50628;51.008;13.658;2023-10-09T16:52:21;99928.88;;;14.21;100.00
64292;BME280;50628;51.008;13.658;2023-10-09T16:57:23;99937.41;;;14.23;100.00
64292;BME280;50628;51.008;13.658;2023-10-09T17:02:25;99943.47;;;14.23;100.00
64292;BME280;50628;51.008;13.658;2023-10-09T17:07:29;99945.13;;;14.24;100.00
64292;BME280;50628;51.008;13.658;2023-10-09T17:12:34;99951.59;;;14.30;100.00
64292;BME280;50628;51.008;13.658;2023-10-09T17:17:43;99952.16;;;14.24;100.00
64292;BME280;50628;51.008;13.658;2023-10-09T17:22:48;99955.19;;;14.29;100.00
64292;BME280;50628;51.008;13.658;2023-10-09T17:27:49;99955.19;;;14.29;100.00
64292;BME280;50628;51.008;13.658;2023-10-09T17:32:51;99957.91;;;14.37;100.00
64292;BME280;50628;51.008;13.658;2023-10-09T17:37:56;99967.13;;;14.41;100.00
64292;BME280;50628;51.008;13.658;2023-10-09T17:42:58;99970.72;;;14.40;100.00
64292;BME280;50628;51.008;13.658;2023-10-09T17:48:00;99968.91;;;14.41;100.00
64292;BME280;50628;51.008;13.658;2023-10-09T17:53:10;99964.53;;;14.41;100.00
64292;BME280;50628;51.008;13.658;2023-10-09T17:58:12;99973.47;;;14.39;100.00
64292;BME280;50628;51.008;13.658;2023-10-09T18:03:14;99971.81;;;14.38;100.00
64292;BME280;50628;51.008;13.658;2023-10-09T18:08:17;99979.53;;;14.39;100.00
64292;BME280;50628;51.008;13.658;2023-10-09T18:13:19;99973.88;;;14.44;100.00
64292;BME280;50628;51.008;13.658;2023-10-09T18:18:21;99970.16;;;14.46;100.00
64292;BME280;50628;51.008;13.658;2023-10-09T18:23:24;99969.56;;;14.53;100.00
64292;BME280;50628;51.008;13.658;2023-10-09T18:28:29;99980.91;;;14.53;100.00
64292;BME280;50628;51.008;13.658;2023-10-09T18:33:31;99970.53;;;14.61;100.00
64292;BME280;50628;51.008;13.658;2023-10-09T18:38:36;99980.34;;;14.59;100.00
64292;BME280;50628;51.008;13.658;2023-10-09T18:43:38;99981.16;;;14.60;100.00
64292;BME280;50628;51.008;13.658;2023-10-09T18:48:42;99971.22;;;14.63;100.00
64292;BME280;50628;51.008;13.658;2023-10-09T18:53:47;99975.63;;;14.63;100.00
64292;BME280;50628;51.008;13.658;2023-10-09T18:58:49;99981.69;;;14.63;100.00
64292;BME280;50628;51.008;13.658;2023-10-09T19:03:51;99981.41;;;14.66;100.00
64292;BME280;50628;51.008;13.658;2023-10-09T19:08:54;99978.50;;;14.69;100.00
64292;BME280;50628;51.008;13.658;2023-10-09T19:13:59;99987.72;;;14.74;100.00
64292;BME280;50628;51.008;13.658;2023-10-09T19:19:01;99991.19;;;14.74;100.00
64292;BME280;50628;51.008;13.658;2023-10-09T19:24:06;99989.81;;;14.70;100.00
64292;BME280;50628;51.008;13.658;2023-10-09T19:29:12;99985.78;;;14.76;100.00
64292;BME280;50628;51.008;13.658;2023-10-09T19:34:14;99981.22;;;14.78;100.00
64292;BME280;50628;51.008;13.658;2023-10-09T19:39:17;99984.97;;;14.75;100.00
64292;BME280;50628;51.008;13.658;2023-10-09T19:44:19;99980.84;;;14.73;100.00
64292;BME280;50628;51.008;13.658;2023-10-09T19:49:21;99985.25;;;14.72;100.00
64292;BME280;50628;51.008;13.658;2023-10-09T19:54:24;99991.44;;;14.71;100.00
64292;BME280;50628;51.008;13.658;2023-10-09T19:59:26;99981.22;;;14.78;100.00
64292;BME280;50628;51.008;13.658;2023-10-09T20:04:27;99996.66;;;14.81;100.00
64292;BME280;50628;51.008;13.658;2023-10-09T20:09:31;99999.97;;;14.83;100.00
64292;BME280;50628;51.008;13.658;2023-10-09T20:14:34;100007.53;;;14.86;100.00
64292;BME280;50628;51.008;13.658;2023-10-09T20:19:37;100018.16;;;14.84;100.00
64292;BME280;50628;51.008;13.658;2023-10-09T20:24:43;100011.25;;;14.83;100.00
64292;BME280;50628;51.008;13.658;2023-10-09T20:29:47;100011.56;;;14.80;100.00
64292;BME280;50628;51.008;13.658;2023-10-09T20:34:51;100008.41;;;14.77;100.00
64292;BME280;50628;51.008;13.658;2023-10-09T20:39:59;100021.50;;;14.77;100.00
64292;BME280;50628;51.008;13.658;2023-10-09T20:45:01;100034.44;;;14.78;100.00
64292;BME280;50628;51.008;13.658;2023-10-09T20:50:04;100039.34;;;14.91;100.00
64292;BME280;50628;51.008;13.658;2023-10-09T20:55:09;100045.28;;;14.93;100.00
64292;BME280;50628;51.008;13.658;2023-10-09T21:00:12;100051.22;;;14.95;100.00
64292;BME280;50628;51.008;13.658;2023-10-09T21:05:20;100041.97;;;14.91;100.00
64292;BME280;50628;51.008;13.658;2023-10-09T21:10:25;100046.38;;;15.00;100.00
64292;BME280;50628;51.008;13.658;2023-10-09T21:15:27;100042.25;;;14.98;100.00
64292;BME280;50628;51.008;13.658;2023-10-09T21:20:31;100052.03;;;14.96;100.00
64292;BME280;50628;51.008;13.658;2023-10-09T21:25:35;100050.50;;;15.03;100.00
64292;BME280;50628;51.008;13.658;2023-10-09T21:30:37;100058.69;;;14.90;100.00
64292;BME280;50628;51.008;13.658;2023-10-09T21:35:41;100058.53;;;14.91;100.00
64292;BME280;50628;51.008;13.658;2023-10-09T21:40:45;100066.13;;;14.95;100.00
64292;BME280;50628;51.008;13.658;2023-10-09T21:45:48;100066.22;;;15.03;100.00
64292;BME280;50628;51.008;13.658;2023-10-09T21:50:52;100063.44;;;15.04;100.00
64292;BME280;50628;51.008;13.658;2023-10-09T21:56:03;100074.91;;;15.03;100.00
64292;BME280;50628;51.008;13.658;2023-10-09T22:01:05;100073.41;;;15.01;100.00
64292;BME280;50628;51.008;13.658;2023-10-09T22:06:09;100070.66;;;15.02;100.00
64292;BME280;50628;51.008;13.658;2023-10-09T22:11:13;100064.72;;;15.00;100.00
64292;BME280;50628;51.008;13.658;2023-10-09T22:16:16;100057.94;;;15.07;100.00
64292;BME280;50628;51.008;13.658;2023-10-09T22:21:18;100066.63;;;15.08;100.00
64292;BME280;50628;51.008;13.658;2023-10-09T22:26:22;100063.31;;;15.06;100.00
64292;BME280;50628;51.008;13.658;2023-10-09T22:31:24;100070.88;;;15.09;100.00
64292;BME280;50628;51.008;13.658;2023-10-09T22:36:29;100068.66;;;15.14;100.00
64292;BME280;50628;51.008;13.658;2023-10-09T22:41:34;100062.59;;;15.13;100.00
64292;BME280;50628;51.008;13.658;2023-10-09T22:46:37;100069.91;;;15.10;100.00
64292;BME280;50628;51.008;13.658;2023-10-09T22:51:41;100071.44;;;15.12;100.00
64292;BME280;50628;51.008;13.658;2023-10-09T22:56:52;100068.00;;;15.12;100.00
64292;BME280;50628;51.008;13.658;2023-10-09T23:01:55;100052.53;;;15.09;100.00
64292;BME280;50628;51.008;13.658;2023-10-09T23:06:59;100063.56;;;15.12;100.00
64292;BME280;50628;51.008;13.658;2023-10-09T23:12:15;100062.75;;;15.12;100.00
64292;BME280;50628;51.008;13.658;2023-10-09T23:17:21;100059.97;;;15.13;100.00
64292;BME280;50628;51.008;13.658;2023-10-09T23:22:43;100074.75;;;15.14;100.00
64292;BME280;50628;51.008;13.658;2023-10-09T23:27:53;100086.03;;;15.15;100.00
64292;BME280;50628;51.008;13.658;2023-10-09T23:33:14;100081.91;;;15.12;100.00
64292;BME280;50628;51.008;13.658;2023-10-09T23:38:20;100090.34;;;15.06;100.00
64292;BME280;50628;51.008;13.658;2023-10-09T23:43:33;100081.22;;;15.10;100.00
64292;BME280;50628;51.008;13.658;2023-10-09T23:48:44;100092.00;;;15.07;100.00
64292;BME280;50628;51.008;13.658;2023-10-09T23:53:49;100092.88;;;14.98;100.00
64292;BME280;50628;51.008;13.658;2023-10-09T23:59:03;100088.31;;;15.00;100.00
